METAR AND TAF INFORMATION
METAR FOR ESOK
ADDS - METARS form results

(0619 UTC 28 July 2021)
Data provider http://aviationweather.gov/metar/data/
 
METAR text: ESOK 280550Z 09004KT 9999 FEW004 BKN013 18/18 Q1007
Conditions at: ESOK (KARLSTAD NORTH , SE) observed 0550 UTC 28 July 2021
Temperature: 18.0°C (64°F)
Dewpoint: 18.0°C (64°F) [RH = 100%]
Pressure (altimeter): 29.73 inches Hg (1007.0 mb)
Winds: from the E (90 degrees) at 5 MPH (4 knots; 2.1 m/s)
Visibility: 6 or more miles (10+ km)
Ceiling: 1300 feet AGL
Clouds: few clouds at 400 feet AGL
broken clouds at 1300 feet AGL
Weather: no significant weather observed at this time

METAR text: ESOK 280520Z 10003KT 9999 SCT003 BKN011 18/18 Q1007
Conditions at: ESOK (KARLSTAD NORTH , SE) observed 0520 UTC 28 July 2021
Temperature: 18.0°C (64°F)
Dewpoint: 18.0°C (64°F) [RH = 100%]
Pressure (altimeter): 29.73 inches Hg (1007.0 mb)
Winds: from the E (100 degrees) at 3 MPH (3 knots; 1.5 m/s)
Visibility: 6 or more miles (10+ km)
Ceiling: 1100 feet AGL
Clouds: scattered clouds at 300 feet AGL
broken clouds at 1100 feet AGL
Weather: no significant weather observed at this time

Forecast for: ESOK (KARLSTAD NORTH , SE)
Text: TAF ESOK 280530Z 2806/2815 13005KT 9999 FEW005 BKN015
Forecast period: 0600 to 1500 UTC 28 July 2021
Forecast type: FROM: standard forecast or significant change
Winds: from the SE (130 degrees) at 6 MPH (5 knots; 2.6 m/s)
Visibility: 6 or more miles (10+ km)
Ceiling: 1500 feet AGL
Clouds: few clouds at 500 feet AGL
broken clouds at 1500 feet AGL
Weather: no significant weather forecast for this period
Text: TEMPO 2806/2815 4000 SHRA BKN010 BKN050CB
Forecast period: 0600 to 1500 UTC 28 July 2021
Forecast type: TEMPORARY: The following changes expected for less than half the time period
Visibility: 2.49 miles (4.01 km)
Ceiling: 1000 feet AGL
Clouds: broken clouds at 1000 feet AGL
broken clouds at 5000 feet AGL
Weather: SHRA  (rain showers)

 AIRPORT MAP

 RUNWAY INFORMATION
Runway 03 Runway length 8255 ft Runway width 148 ft
Runway elevation 332 ft Runway displaced threshold 0 ft Runway heading 26
Runway 21 Runway length 8255 ft Runway width 148 ft
Runway elevation 352 ft Runway displaced threshold 0 ft Runway heading 206
Runway 03L Runway length 1840 ft Runway width 170 ft
Runway elevation 0 ft Runway displaced threshold 0 ft Runway heading 26
Runway 21R Runway length 1840 ft Runway width 170 ft
Runway elevation 0 ft Runway displaced threshold 0 ft Runway heading 206

 AIRPORT FREQUENCIES
Type TWR Name TWR Frequency 119.45 MHZ

 AIRPORT NEAR NAVIGATION AIDS
Type VOR-DME Name Karlstad Frequency 117800 KHZ



Powered by Virtual Airlines Manager [v2.6.2]